sensor_id;sensor_type;location;lat;lon;timestamp;P1;durP1;ratioP1;P2;durP2;ratioP2
42948;SDS011;28587;46.794;23.594;2022-10-31T00:02:39;17.67;;;14.52;;
42948;SDS011;28587;46.794;23.594;2022-10-31T00:07:40;17.20;;;14.75;;
42948;SDS011;28587;46.794;23.594;2022-10-31T00:12:41;17.83;;;14.32;;
42948;SDS011;28587;46.794;23.594;2022-10-31T00:17:42;16.63;;;14.60;;
42948;SDS011;28587;46.794;23.594;2022-10-31T00:22:43;15.30;;;13.65;;
42948;SDS011;28587;46.794;23.594;2022-10-31T00:27:44;17.95;;;14.80;;
42948;SDS011;28587;46.794;23.594;2022-10-31T00:32:45;16.15;;;13.80;;
42948;SDS011;28587;46.794;23.594;2022-10-31T00:37:46;15.70;;;13.60;;
42948;SDS011;28587;46.794;23.594;2022-10-31T00:42:47;16.88;;;13.70;;
42948;SDS011;28587;46.794;23.594;2022-10-31T00:47:48;16.92;;;13.95;;
42948;SDS011;28587;46.794;23.594;2022-10-31T00:52:49;15.25;;;13.43;;
42948;SDS011;28587;46.794;23.594;2022-10-31T00:57:50;15.05;;;12.88;;
42948;SDS011;28587;46.794;23.594;2022-10-31T01:02:51;14.43;;;12.65;;
42948;SDS011;28587;46.794;23.594;2022-10-31T01:07:52;16.33;;;14.18;;
42948;SDS011;28587;46.794;23.594;2022-10-31T01:12:54;14.57;;;12.88;;
42948;SDS011;28587;46.794;23.594;2022-10-31T01:17:56;14.77;;;12.98;;
42948;SDS011;28587;46.794;23.594;2022-10-31T01:22:57;14.45;;;12.88;;
42948;SDS011;28587;46.794;23.594;2022-10-31T01:27:58;14.25;;;11.55;;
42948;SDS011;28587;46.794;23.594;2022-10-31T01:32:58;13.68;;;12.13;;
42948;SDS011;28587;46.794;23.594;2022-10-31T01:37:59;15.15;;;13.13;;
42948;SDS011;28587;46.794;23.594;2022-10-31T01:43:00;13.85;;;11.77;;
42948;SDS011;28587;46.794;23.594;2022-10-31T01:48:01;12.98;;;11.68;;
42948;SDS011;28587;46.794;23.594;2022-10-31T01:53:03;14.30;;;12.80;;
42948;SDS011;28587;46.794;23.594;2022-10-31T01:58:09;14.48;;;12.80;;
42948;SDS011;28587;46.794;23.594;2022-10-31T02:03:14;14.75;;;13.25;;
42948;SDS011;28587;46.794;23.594;2022-10-31T02:13:23;13.15;;;11.70;;
42948;SDS011;28587;46.794;23.594;2022-10-31T02:18:26;13.55;;;12.07;;
42948;SDS011;28587;46.794;23.594;2022-10-31T02:29:06;14.25;;;11.57;;
42948;SDS011;28587;46.794;23.594;2022-10-31T02:34:36;14.13;;;12.50;;
42948;SDS011;28587;46.794;23.594;2022-10-31T02:45:42;13.50;;;11.35;;
42948;SDS011;28587;46.794;23.594;2022-10-31T02:51:09;12.82;;;11.35;;
42948;SDS011;28587;46.794;23.594;2022-10-31T02:56:12;13.52;;;12.07;;
42948;SDS011;28587;46.794;23.594;2022-10-31T03:06:25;12.48;;;10.98;;
42948;SDS011;28587;46.794;23.594;2022-10-31T03:12:08;12.20;;;10.80;;
42948;SDS011;28587;46.794;23.594;2022-10-31T03:17:16;13.93;;;11.40;;
42948;SDS011;28587;46.794;23.594;2022-10-31T03:22:24;12.60;;;10.80;;
42948;SDS011;28587;46.794;23.594;2022-10-31T03:27:27;13.35;;;11.95;;
42948;SDS011;28587;46.794;23.594;2022-10-31T03:32:46;13.55;;;11.38;;
42948;SDS011;28587;46.794;23.594;2022-10-31T03:37:52;11.38;;;10.27;;
42948;SDS011;28587;46.794;23.594;2022-10-31T03:42:59;11.90;;;10.48;;
42948;SDS011;28587;46.794;23.594;2022-10-31T03:48:06;12.32;;;10.90;;
42948;SDS011;28587;46.794;23.594;2022-10-31T03:53:09;12.43;;;10.57;;
42948;SDS011;28587;46.794;23.594;2022-10-31T03:58:27;12.23;;;10.40;;
42948;SDS011;28587;46.794;23.594;2022-10-31T04:03:34;12.70;;;10.98;;
42948;SDS011;28587;46.794;23.594;2022-10-31T04:08:39;12.40;;;11.10;;
42948;SDS011;28587;46.794;23.594;2022-10-31T04:13:48;11.75;;;10.20;;
42948;SDS011;28587;46.794;23.594;2022-10-31T04:18:55;11.15;;;9.93;;
42948;SDS011;28587;46.794;23.594;2022-10-31T04:23:57;12.07;;;10.60;;
42948;SDS011;28587;46.794;23.594;2022-10-31T04:29:00;11.85;;;10.48;;
42948;SDS011;28587;46.794;23.594;2022-10-31T04:34:02;12.13;;;10.55;;
42948;SDS011;28587;46.794;23.594;2022-10-31T04:39:04;13.68;;;11.30;;
42948;SDS011;28587;46.794;23.594;2022-10-31T04:44:13;14.60;;;11.82;;
42948;SDS011;28587;46.794;23.594;2022-10-31T04:49:14;16.80;;;13.90;;
42948;SDS011;28587;46.794;23.594;2022-10-31T04:54:15;18.63;;;16.65;;
42948;SDS011;28587;46.794;23.594;2022-10-31T04:59:34;24.52;;;20.67;;
42948;SDS011;28587;46.794;23.594;2022-10-31T05:04:37;22.83;;;19.92;;
42948;SDS011;28587;46.794;23.594;2022-10-31T05:09:38;20.63;;;17.77;;
42948;SDS011;28587;46.794;23.594;2022-10-31T05:14:39;18.17;;;15.90;;
42948;SDS011;28587;46.794;23.594;2022-10-31T05:19:59;27.10;;;15.85;;
42948;SDS011;28587;46.794;23.594;2022-10-31T05:25:37;23.40;;;16.48;;
42948;SDS011;28587;46.794;23.594;2022-10-31T05:30:39;16.75;;;13.82;;
42948;SDS011;28587;46.794;23.594;2022-10-31T05:35:45;20.88;;;13.68;;
42948;SDS011;28587;46.794;23.594;2022-10-31T05:41:04;17.55;;;13.05;;
42948;SDS011;28587;46.794;23.594;2022-10-31T05:46:07;16.85;;;12.15;;
42948;SDS011;28587;46.794;23.594;2022-10-31T05:51:34;15.10;;;11.98;;
42948;SDS011;28587;46.794;23.594;2022-10-31T05:56:37;14.98;;;11.90;;
42948;SDS011;28587;46.794;23.594;2022-10-31T06:01:39;15.43;;;12.05;;
42948;SDS011;28587;46.794;23.594;2022-10-31T06:06:56;17.85;;;12.18;;
42948;SDS011;28587;46.794;23.594;2022-10-31T06:11:57;17.05;;;10.48;;
42948;SDS011;28587;46.794;23.594;2022-10-31T06:16:58;14.68;;;10.77;;
42948;SDS011;28587;46.794;23.594;2022-10-31T06:22:18;13.20;;;10.80;;
42948;SDS011;28587;46.794;23.594;2022-10-31T06:27:20;13.45;;;11.05;;
42948;SDS011;28587;46.794;23.594;2022-10-31T06:32:22;11.73;;;10.40;;
42948;SDS011;28587;46.794;23.594;2022-10-31T06:37:24;11.48;;;9.93;;
42948;SDS011;28587;46.794;23.594;2022-10-31T06:42:31;13.10;;;10.23;;
42948;SDS011;28587;46.794;23.594;2022-10-31T06:47:34;12.07;;;9.55;;
42948;SDS011;28587;46.794;23.594;2022-10-31T06:52:39;11.73;;;10.32;;
42948;SDS011;28587;46.794;23.594;2022-10-31T06:57:40;12.52;;;9.48;;
42948;SDS011;28587;46.794;23.594;2022-10-31T07:02:42;13.13;;;10.07;;
42948;SDS011;28587;46.794;23.594;2022-10-31T07:07:43;14.00;;;10.05;;
42948;SDS011;28587;46.794;23.594;2022-10-31T07:12:44;13.38;;;10.25;;
42948;SDS011;28587;46.794;23.594;2022-10-31T07:17:45;14.70;;;10.00;;
42948;SDS011;28587;46.794;23.594;2022-10-31T07:22:47;10.85;;;9.65;;
42948;SDS011;28587;46.794;23.594;2022-10-31T07:27:48;12.70;;;9.50;;
42948;SDS011;28587;46.794;23.594;2022-10-31T07:32:53;11.90;;;9.52;;
42948;SDS011;28587;46.794;23.594;2022-10-31T07:37:55;10.30;;;8.82;;
42948;SDS011;28587;46.794;23.594;2022-10-31T07:42:57;11.68;;;9.32;;
42948;SDS011;28587;46.794;23.594;2022-10-31T07:48:30;11.35;;;8.93;;
42948;SDS011;28587;46.794;23.594;2022-10-31T07:54:03;10.15;;;9.05;;
42948;SDS011;28587;46.794;23.594;2022-10-31T07:59:05;10.70;;;9.10;;
42948;SDS011;28587;46.794;23.594;2022-10-31T08:04:06;13.20;;;10.05;;
42948;SDS011;28587;46.794;23.594;2022-10-31T08:09:26;12.55;;;11.13;;
42948;SDS011;28587;46.794;23.594;2022-10-31T08:14:28;15.88;;;12.35;;
42948;SDS011;28587;46.794;23.594;2022-10-31T08:19:29;14.45;;;11.80;;
42948;SDS011;28587;46.794;23.594;2022-10-31T08:24:30;16.05;;;11.90;;
42948;SDS011;28587;46.794;23.594;2022-10-31T08:29:32;17.13;;;12.43;;
42948;SDS011;28587;46.794;23.594;2022-10-31T08:34:34;15.75;;;13.00;;
42948;SDS011;28587;46.794;23.594;2022-10-31T08:39:54;15.70;;;12.18;;
42948;SDS011;28587;46.794;23.594;2022-10-31T08:44:55;17.65;;;11.75;;
42948;SDS011;28587;46.794;23.594;2022-10-31T08:49:57;14.25;;;11.73;;
42948;SDS011;28587;46.794;23.594;2022-10-31T08:54:58;15.35;;;11.55;;
42948;SDS011;28587;46.794;23.594;2022-10-31T09:00:19;12.93;;;10.93;;
42948;SDS011;28587;46.794;23.594;2022-10-31T09:05:46;14.98;;;11.52;;
42948;SDS011;28587;46.794;23.594;2022-10-31T09:10:47;11.80;;;10.52;;
42948;SDS011;28587;46.794;23.594;2022-10-31T09:15:53;11.02;;;9.63;;
42948;SDS011;28587;46.794;23.594;2022-10-31T09:20:58;12.38;;;9.63;;
42948;SDS011;28587;46.794;23.594;2022-10-31T09:26:02;12.75;;;10.15;;
42948;SDS011;28587;46.794;23.594;2022-10-31T09:31:11;13.13;;;9.98;;
42948;SDS011;28587;46.794;23.594;2022-10-31T09:36:32;12.95;;;10.45;;
42948;SDS011;28587;46.794;23.594;2022-10-31T09:41:46;12.68;;;9.93;;
42948;SDS011;28587;46.794;23.594;2022-10-31T09:47:12;11.43;;;9.27;;
42948;SDS011;28587;46.794;23.594;2022-10-31T09:52:29;11.40;;;10.05;;
42948;SDS011;28587;46.794;23.594;2022-10-31T09:57:36;11.68;;;10.20;;
42948;SDS011;28587;46.794;23.594;2022-10-31T10:02:43;11.23;;;10.05;;
42948;SDS011;28587;46.794;23.594;2022-10-31T10:07:55;11.23;;;9.35;;
42948;SDS011;28587;46.794;23.594;2022-10-31T10:24:27;11.77;;;9.52;;
42948;SDS011;28587;46.794;23.594;2022-10-31T10:29:47;9.98;;;8.95;;
42948;SDS011;28587;46.794;23.594;2022-10-31T10:34:54;10.68;;;9.32;;
42948;SDS011;28587;46.794;23.594;2022-10-31T10:40:21;9.63;;;8.63;;
42948;SDS011;28587;46.794;23.594;2022-10-31T10:45:26;10.40;;;9.30;;
42948;SDS011;28587;46.794;23.594;2022-10-31T10:50:48;11.45;;;9.15;;
42948;SDS011;28587;46.794;23.594;2022-10-31T10:56:00;9.88;;;8.88;;
42948;SDS011;28587;46.794;23.594;2022-10-31T11:01:17;10.75;;;9.10;;
42948;SDS011;28587;46.794;23.594;2022-10-31T11:06:26;9.88;;;8.57;;
42948;SDS011;28587;46.794;23.594;2022-10-31T11:11:30;12.18;;;10.23;;
42948;SDS011;28587;46.794;23.594;2022-10-31T11:16:33;11.40;;;9.77;;
42948;SDS011;28587;46.794;23.594;2022-10-31T11:21:37;10.85;;;9.48;;
42948;SDS011;28587;46.794;23.594;2022-10-31T11:26:42;18.65;;;12.52;;
42948;SDS011;28587;46.794;23.594;2022-10-31T11:31:45;14.65;;;10.98;;
42948;SDS011;28587;46.794;23.594;2022-10-31T11:36:48;13.45;;;10.68;;
42948;SDS011;28587;46.794;23.594;2022-10-31T11:41:50;11.30;;;9.90;;
42948;SDS011;28587;46.794;23.594;2022-10-31T11:47:02;12.90;;;10.52;;
42948;SDS011;28587;46.794;23.594;2022-10-31T11:52:25;11.20;;;9.80;;
42948;SDS011;28587;46.794;23.594;2022-10-31T11:57:32;13.50;;;10.45;;
42948;SDS011;28587;46.794;23.594;2022-10-31T12:02:43;12.63;;;10.23;;
42948;SDS011;28587;46.794;23.594;2022-10-31T12:07:44;10.63;;;9.25;;
42948;SDS011;28587;46.794;23.594;2022-10-31T12:18:04;11.43;;;9.60;;
42948;SDS011;28587;46.794;23.594;2022-10-31T12:23:19;11.15;;;9.55;;
42948;SDS011;28587;46.794;23.594;2022-10-31T13:05:19;10.88;;;9.32;;
42948;SDS011;28587;46.794;23.594;2022-10-31T13:10:36;11.40;;;9.63;;
42948;SDS011;28587;46.794;23.594;2022-10-31T13:15:47;10.02;;;8.90;;
42948;SDS011;28587;46.794;23.594;2022-10-31T13:20:52;12.45;;;9.80;;
42948;SDS011;28587;46.794;23.594;2022-10-31T13:25:55;10.25;;;9.15;;
42948;SDS011;28587;46.794;23.594;2022-10-31T13:30:57;10.38;;;9.13;;
42948;SDS011;28587;46.794;23.594;2022-10-31T13:36:04;11.25;;;9.00;;
42948;SDS011;28587;46.794;23.594;2022-10-31T13:41:25;13.85;;;10.35;;
42948;SDS011;28587;46.794;23.594;2022-10-31T13:46:42;21.55;;;16.10;;
42948;SDS011;28587;46.794;23.594;2022-10-31T13:51:43;28.38;;;18.70;;
42948;SDS011;28587;46.794;23.594;2022-10-31T13:56:47;26.55;;;18.42;;
42948;SDS011;28587;46.794;23.594;2022-10-31T14:07:09;28.63;;;19.63;;
42948;SDS011;28587;46.794;23.594;2022-10-31T14:17:39;28.58;;;19.52;;
42948;SDS011;28587;46.794;23.594;2022-10-31T14:22:48;32.22;;;21.08;;
42948;SDS011;28587;46.794;23.594;2022-10-31T14:27:49;39.72;;;22.35;;
42948;SDS011;28587;46.794;23.594;2022-10-31T14:32:52;35.78;;;22.25;;
42948;SDS011;28587;46.794;23.594;2022-10-31T14:43:38;31.50;;;20.85;;
42948;SDS011;28587;46.794;23.594;2022-10-31T14:54:30;32.03;;;20.35;;
42948;SDS011;28587;46.794;23.594;2022-10-31T14:59:36;32.65;;;19.27;;
42948;SDS011;28587;46.794;23.594;2022-10-31T15:04:38;26.58;;;18.65;;
42948;SDS011;28587;46.794;23.594;2022-10-31T15:09:41;29.42;;;18.17;;
42948;SDS011;28587;46.794;23.594;2022-10-31T15:14:45;25.40;;;18.35;;
42948;SDS011;28587;46.794;23.594;2022-10-31T15:19:46;24.48;;;17.55;;
42948;SDS011;28587;46.794;23.594;2022-10-31T15:24:48;25.73;;;16.80;;
42948;SDS011;28587;46.794;23.594;2022-10-31T15:29:56;21.27;;;17.00;;
42948;SDS011;28587;46.794;23.594;2022-10-31T15:34:57;23.33;;;16.73;;
42948;SDS011;28587;46.794;23.594;2022-10-31T15:40:05;25.38;;;16.42;;
42948;SDS011;28587;46.794;23.594;2022-10-31T15:50:31;20.40;;;15.50;;
42948;SDS011;28587;46.794;23.594;2022-10-31T15:55:38;24.27;;;16.85;;
42948;SDS011;28587;46.794;23.594;2022-10-31T16:01:03;23.52;;;15.18;;
42948;SDS011;28587;46.794;23.594;2022-10-31T16:06:05;23.10;;;15.52;;
42948;SDS011;28587;46.794;23.594;2022-10-31T16:16:20;22.65;;;15.75;;
42948;SDS011;28587;46.794;23.594;2022-10-31T16:21:23;22.00;;;16.23;;
42948;SDS011;28587;46.794;23.594;2022-10-31T16:26:26;18.33;;;15.00;;
42948;SDS011;28587;46.794;23.594;2022-10-31T16:31:28;20.33;;;15.13;;
42948;SDS011;28587;46.794;23.594;2022-10-31T16:36:37;20.65;;;16.38;;
42948;SDS011;28587;46.794;23.594;2022-10-31T16:41:40;18.73;;;15.20;;
42948;SDS011;28587;46.794;23.594;2022-10-31T16:46:44;19.38;;;15.52;;
42948;SDS011;28587;46.794;23.594;2022-10-31T16:51:45;17.20;;;14.02;;
42948;SDS011;28587;46.794;23.594;2022-10-31T16:56:46;17.70;;;13.85;;
42948;SDS011;28587;46.794;23.594;2022-10-31T17:01:47;18.83;;;14.85;;
42948;SDS011;28587;46.794;23.594;2022-10-31T17:06:49;18.55;;;13.85;;
42948;SDS011;28587;46.794;23.594;2022-10-31T17:11:50;18.05;;;13.98;;
42948;SDS011;28587;46.794;23.594;2022-10-31T17:16:52;18.23;;;13.98;;
42948;SDS011;28587;46.794;23.594;2022-10-31T17:21:53;17.90;;;14.60;;
42948;SDS011;28587;46.794;23.594;2022-10-31T17:26:54;15.50;;;13.15;;
42948;SDS011;28587;46.794;23.594;2022-10-31T17:31:55;18.73;;;13.88;;
42948;SDS011;28587;46.794;23.594;2022-10-31T17:36:56;18.42;;;13.73;;
42948;SDS011;28587;46.794;23.594;2022-10-31T17:41:57;17.63;;;14.13;;
42948;SDS011;28587;46.794;23.594;2022-10-31T17:46:58;17.15;;;14.18;;
42948;SDS011;28587;46.794;23.594;2022-10-31T17:51:59;21.50;;;14.77;;
42948;SDS011;28587;46.794;23.594;2022-10-31T17:57:00;18.58;;;13.95;;
42948;SDS011;28587;46.794;23.594;2022-10-31T18:02:01;21.45;;;14.43;;
42948;SDS011;28587;46.794;23.594;2022-10-31T18:07:07;18.63;;;13.30;;
42948;SDS011;28587;46.794;23.594;2022-10-31T18:12:08;19.65;;;13.55;;
42948;SDS011;28587;46.794;23.594;2022-10-31T18:17:09;18.60;;;13.93;;
42948;SDS011;28587;46.794;23.594;2022-10-31T18:22:10;17.85;;;12.63;;
42948;SDS011;28587;46.794;23.594;2022-10-31T18:27:12;18.00;;;14.02;;
42948;SDS011;28587;46.794;23.594;2022-10-31T18:32:13;17.10;;;13.00;;
42948;SDS011;28587;46.794;23.594;2022-10-31T18:37:13;17.42;;;13.48;;
42948;SDS011;28587;46.794;23.594;2022-10-31T18:42:14;20.25;;;13.55;;
42948;SDS011;28587;46.794;23.594;2022-10-31T18:47:15;16.88;;;12.32;;
42948;SDS011;28587;46.794;23.594;2022-10-31T18:52:18;16.30;;;12.30;;
42948;SDS011;28587;46.794;23.594;2022-10-31T18:57:19;15.65;;;12.38;;
42948;SDS011;28587;46.794;23.594;2022-10-31T19:02:19;16.17;;;12.85;;
42948;SDS011;28587;46.794;23.594;2022-10-31T19:07:21;15.70;;;12.60;;
42948;SDS011;28587;46.794;23.594;2022-10-31T19:12:22;17.02;;;12.63;;
42948;SDS011;28587;46.794;23.594;2022-10-31T19:17:23;16.35;;;12.77;;
42948;SDS011;28587;46.794;23.594;2022-10-31T19:22:24;14.60;;;12.43;;
42948;SDS011;28587;46.794;23.594;2022-10-31T19:27:25;15.55;;;12.27;;
42948;SDS011;28587;46.794;23.594;2022-10-31T19:32:27;13.90;;;12.00;;
42948;SDS011;28587;46.794;23.594;2022-10-31T19:37:28;16.88;;;12.20;;
42948;SDS011;28587;46.794;23.594;2022-10-31T19:42:29;15.98;;;12.10;;
42948;SDS011;28587;46.794;23.594;2022-10-31T19:47:30;15.23;;;11.70;;
42948;SDS011;28587;46.794;23.594;2022-10-31T19:52:34;13.55;;;11.25;;
42948;SDS011;28587;46.794;23.594;2022-10-31T19:57:35;17.92;;;12.40;;
42948;SDS011;28587;46.794;23.594;2022-10-31T20:02:36;12.85;;;11.13;;
42948;SDS011;28587;46.794;23.594;2022-10-31T20:07:37;14.63;;;11.50;;
42948;SDS011;28587;46.794;23.594;2022-10-31T20:12:38;15.30;;;12.00;;
42948;SDS011;28587;46.794;23.594;2022-10-31T20:17:39;13.35;;;10.80;;
42948;SDS011;28587;46.794;23.594;2022-10-31T20:22:40;17.10;;;11.93;;
42948;SDS011;28587;46.794;23.594;2022-10-31T20:27:41;15.40;;;11.32;;
42948;SDS011;28587;46.794;23.594;2022-10-31T20:32:42;14.10;;;10.43;;
42948;SDS011;28587;46.794;23.594;2022-10-31T20:37:43;13.70;;;11.15;;
42948;SDS011;28587;46.794;23.594;2022-10-31T20:42:44;17.27;;;11.75;;
42948;SDS011;28587;46.794;23.594;2022-10-31T20:47:45;14.10;;;11.23;;
42948;SDS011;28587;46.794;23.594;2022-10-31T20:52:45;14.15;;;10.52;;
42948;SDS011;28587;46.794;23.594;2022-10-31T20:57:46;12.77;;;10.55;;
42948;SDS011;28587;46.794;23.594;2022-10-31T21:02:47;14.40;;;10.77;;
42948;SDS011;28587;46.794;23.594;2022-10-31T21:07:48;12.20;;;10.35;;
42948;SDS011;28587;46.794;23.594;2022-10-31T21:12:49;12.70;;;10.73;;
42948;SDS011;28587;46.794;23.594;2022-10-31T21:17:50;11.73;;;10.10;;
42948;SDS011;28587;46.794;23.594;2022-10-31T21:22:51;12.18;;;10.48;;
42948;SDS011;28587;46.794;23.594;2022-10-31T21:27:53;12.82;;;9.98;;
42948;SDS011;28587;46.794;23.594;2022-10-31T21:32:54;12.70;;;10.38;;
42948;SDS011;28587;46.794;23.594;2022-10-31T21:37:55;12.65;;;10.65;;
42948;SDS011;28587;46.794;23.594;2022-10-31T21:42:57;14.48;;;11.13;;
42948;SDS011;28587;46.794;23.594;2022-10-31T21:47:58;11.27;;;10.05;;
42948;SDS011;28587;46.794;23.594;2022-10-31T21:52:59;13.35;;;9.88;;
42948;SDS011;28587;46.794;23.594;2022-10-31T21:58:20;12.13;;;10.07;;
42948;SDS011;28587;46.794;23.594;2022-10-31T22:03:21;12.75;;;10.02;;
42948;SDS011;28587;46.794;23.594;2022-10-31T22:08:22;11.20;;;9.00;;
42948;SDS011;28587;46.794;23.594;2022-10-31T22:13:23;11.52;;;9.38;;
42948;SDS011;28587;46.794;23.594;2022-10-31T22:18:24;10.30;;;9.20;;
42948;SDS011;28587;46.794;23.594;2022-10-31T22:23:25;11.93;;;9.73;;
42948;SDS011;28587;46.794;23.594;2022-10-31T22:28:29;10.38;;;9.25;;
42948;SDS011;28587;46.794;23.594;2022-10-31T22:33:34;10.55;;;9.30;;
42948;SDS011;28587;46.794;23.594;2022-10-31T22:38:36;13.00;;;9.85;;
42948;SDS011;28587;46.794;23.594;2022-10-31T22:43:41;11.00;;;9.75;;
42948;SDS011;28587;46.794;23.594;2022-10-31T22:48:43;10.88;;;9.23;;
42948;SDS011;28587;46.794;23.594;2022-10-31T22:53:46;12.80;;;9.55;;
42948;SDS011;28587;46.794;23.594;2022-10-31T22:58:47;12.80;;;10.18;;
42948;SDS011;28587;46.794;23.594;2022-10-31T23:03:49;11.15;;;9.05;;
42948;SDS011;28587;46.794;23.594;2022-10-31T23:08:50;12.02;;;9.40;;
42948;SDS011;28587;46.794;23.594;2022-10-31T23:13:52;13.57;;;9.73;;
42948;SDS011;28587;46.794;23.594;2022-10-31T23:19:14;12.65;;;10.05;;
42948;SDS011;28587;46.794;23.594;2022-10-31T23:24:16;11.13;;;9.02;;
42948;SDS011;28587;46.794;23.594;2022-10-31T23:29:17;12.18;;;9.50;;
42948;SDS011;28587;46.794;23.594;2022-10-31T23:34:19;10.95;;;9.57;;
42948;SDS011;28587;46.794;23.594;2022-10-31T23:39:23;12.45;;;9.90;;
42948;SDS011;28587;46.794;23.594;2022-10-31T23:44:24;12.70;;;9.68;;
42948;SDS011;28587;46.794;23.594;2022-10-31T23:49:24;10.43;;;9.20;;
42948;SDS011;28587;46.794;23.594;2022-10-31T23:54:26;11.65;;;9.73;;
42948;SDS011;28587;46.794;23.594;2022-10-31T23:59:27;11.13;;;9.30;;
